createdAt,value
2023-02-11T00:02:01.396Z,76.91
2023-02-11T00:06:28.211Z,76.27
2023-02-11T00:09:34.031Z,75.91
2023-02-11T00:12:27.010Z,75.85
2023-02-11T00:15:17.696Z,76.03
2023-02-11T00:18:10.909Z,75.86
2023-02-11T00:20:58.937Z,76.30
2023-02-11T00:24:07.880Z,77.67
2023-02-11T00:27:37.043Z,77.41
2023-02-11T00:31:46.098Z,78.44
2023-02-11T00:35:17.825Z,77.75
2023-02-11T00:38:47.672Z,76.84
2023-02-11T00:41:17.374Z,76.20
2023-02-11T00:43:46.169Z,75.50
2023-02-11T00:46:15.411Z,74.63
2023-02-11T00:48:43.918Z,74.05
2023-02-11T00:51:13.547Z,73.48
2023-02-11T00:53:41.869Z,73.19
2023-02-11T00:57:28.502Z,72.72
2023-02-11T00:59:56.865Z,72.52
2023-02-11T01:02:25.305Z,72.51
2023-02-11T01:04:53.661Z,72.34
2023-02-11T01:07:21.994Z,71.93
2023-02-11T01:09:50.274Z,72.11
2023-02-11T01:12:18.556Z,72.44
2023-02-11T01:14:48.093Z,72.62
2023-02-11T01:18:17.473Z,72.65
2023-02-11T01:21:44.047Z,72.40
2023-02-11T01:24:14.004Z,72.22
2023-02-11T01:26:46.789Z,71.91
2023-02-11T01:29:18.229Z,72.23
2023-02-11T01:32:05.360Z,72.03
2023-02-11T01:34:33.835Z,71.73
2023-02-11T01:37:02.135Z,71.93
2023-02-11T01:39:34.224Z,72.50
2023-02-11T01:42:02.660Z,72.37
2023-02-11T01:45:37.406Z,72.53
2023-02-11T01:49:53.738Z,72.76
2023-02-11T01:52:46.530Z,72.85
2023-02-11T01:56:31.946Z,72.82
2023-02-11T02:00:02.037Z,72.60
2023-02-11T02:03:34.422Z,72.55
2023-02-11T02:07:41.706Z,72.39
2023-02-11T02:11:32.687Z,72.63
2023-02-11T02:14:27.523Z,72.75
2023-02-11T02:17:27.926Z,72.74
2023-02-11T02:21:34.673Z,72.63
2023-02-11T02:25:42.483Z,72.86
2023-02-11T02:30:18.182Z,73.42
2023-02-11T02:43:54.758Z,72.88
2023-02-11T02:46:28.939Z,73.30
2023-02-11T02:48:58.552Z,74.03
2023-02-11T02:51:57.291Z,73.68
2023-02-11T02:54:31.966Z,75.14
2023-02-11T02:57:30.810Z,74.53
2023-02-11T03:00:17.860Z,73.76
2023-02-11T03:03:58.859Z,73.79
2023-02-11T03:07:55.330Z,73.50
2023-02-11T03:12:24.261Z,73.72
2023-02-11T03:15:14.259Z,73.20
2023-02-11T03:17:47.983Z,72.03
2023-02-11T03:20:20.366Z,71.68
2023-02-11T03:22:59.073Z,72.54
2023-02-11T03:25:34.752Z,72.08
2023-02-11T03:28:14.370Z,71.12
2023-02-11T03:30:56.506Z,70.81
2023-02-11T03:34:57.522Z,70.94
2023-02-11T03:38:01.433Z,69.69
2023-02-11T03:40:38.782Z,69.10
2023-02-11T03:43:21.409Z,69.31
2023-02-11T03:47:10.447Z,69.62
2023-02-11T03:50:41.587Z,68.60
2023-02-11T03:53:10.784Z,68.53
2023-02-11T03:55:41.817Z,68.59
2023-02-11T03:58:10.443Z,68.63
2023-02-11T04:01:58.875Z,68.83
2023-02-11T04:05:25.570Z,68.93
2023-02-11T04:09:01.935Z,68.98
2023-02-11T04:11:46.687Z,69.17
2023-02-11T04:14:24.207Z,68.96
2023-02-11T04:16:53.422Z,68.67
2023-02-11T04:20:22.402Z,68.62
2023-02-11T04:23:43.769Z,68.63
2023-02-11T04:27:37.190Z,67.68
2023-02-11T04:31:43.817Z,67.76
2023-02-11T04:35:40.484Z,68.15
2023-02-11T04:39:30.074Z,68.76
2023-02-11T04:41:58.471Z,69.14
2023-02-11T04:44:26.871Z,69.24
2023-02-11T04:46:55.275Z,69.55
2023-02-11T04:49:23.755Z,69.62
2023-02-11T04:51:52.063Z,70.09
2023-02-11T04:54:41.111Z,70.03
2023-02-11T04:58:30.890Z,70.02
2023-02-11T05:02:39.898Z,70.08
2023-02-11T05:06:36.282Z,70.00
2023-02-11T05:09:04.736Z,69.50
2023-02-11T05:11:33.225Z,68.77
2023-02-11T05:14:01.568Z,67.63
2023-02-11T05:16:29.991Z,67.77
2023-02-11T05:18:58.721Z,67.41
2023-02-11T05:21:27.093Z,67.43
2023-02-11T05:23:55.566Z,67.29
2023-02-11T05:27:00.784Z,67.42
2023-02-11T05:29:29.217Z,68.20
2023-02-11T05:31:59.471Z,68.94
2023-02-11T05:34:27.779Z,69.49
2023-02-11T05:36:56.144Z,70.48
2023-02-11T05:40:20.880Z,71.39
2023-02-11T05:43:51.315Z,72.30
2023-02-11T05:46:19.928Z,73.52
2023-02-11T05:48:48.269Z,74.05
2023-02-11T05:51:16.534Z,74.15
2023-02-11T05:54:06.130Z,73.55
2023-02-11T05:57:02.889Z,72.77
2023-02-11T06:00:51.587Z,72.19
2023-02-11T06:04:24.856Z,72.18
2023-02-11T06:08:13.483Z,71.51
2023-02-11T06:10:45.243Z,71.19
2023-02-11T06:13:58.038Z,70.62
2023-02-11T06:17:50.990Z,69.61
2023-02-11T06:20:20.305Z,69.55
2023-02-11T06:22:48.659Z,69.23
2023-02-11T06:25:17.174Z,68.01
2023-02-11T06:27:45.485Z,66.93
2023-02-11T06:31:14.360Z,66.47
2023-02-11T06:34:41.053Z,64.64
2023-02-11T06:37:09.368Z,64.93
2023-02-11T06:39:37.694Z,65.26
2023-02-11T06:42:07.981Z,65.24
2023-02-11T06:45:35.575Z,65.12
2023-02-11T06:48:04.100Z,65.05
2023-02-11T06:51:22.481Z,65.05
2023-02-11T06:53:51.186Z,64.80
2023-02-11T06:56:24.424Z,64.95
2023-02-11T06:58:56.437Z,65.21
2023-02-11T07:01:25.974Z,65.33
2023-02-11T07:04:41.174Z,65.55
2023-02-11T07:07:59.959Z,62.58
2023-02-11T07:11:07.262Z,60.05
2023-02-11T07:14:27.163Z,59.74
2023-02-11T07:18:17.582Z,59.02
2023-02-11T07:21:08.950Z,59.00
2023-02-11T07:24:55.901Z,59.02
2023-02-11T07:28:28.872Z,58.42
2023-02-11T07:31:23.779Z,58.73
2023-02-11T07:35:08.678Z,58.84
2023-02-11T07:37:37.028Z,59.33
2023-02-11T07:40:25.580Z,58.75
2023-02-11T07:42:53.837Z,58.76
2023-02-11T07:45:44.612Z,58.92
2023-02-11T07:48:22.938Z,58.11
2023-02-11T07:51:30.454Z,58.40
2023-02-11T07:54:00.369Z,57.76
2023-02-11T07:57:21.075Z,57.10
2023-02-11T07:59:49.384Z,56.97
2023-02-11T08:03:00.538Z,56.33
2023-02-11T08:05:30.713Z,56.77
2023-02-11T08:09:02.296Z,56.65
2023-02-11T08:12:45.984Z,55.82
2023-02-11T08:16:55.750Z,55.02
2023-02-11T08:19:52.761Z,52.95
2023-02-11T08:23:25.877Z,52.43
2023-02-11T08:26:50.164Z,49.23
2023-02-11T08:30:27.469Z,49.11
2023-02-11T08:34:16.527Z,46.89
2023-02-11T08:37:05.954Z,46.94
2023-02-11T08:40:12.719Z,47.25
2023-02-11T08:43:10.957Z,46.95
2023-02-11T08:46:02.351Z,46.47
2023-02-11T08:48:30.917Z,46.46
2023-02-11T08:51:00.611Z,47.02
2023-02-11T08:53:29.314Z,45.26
2023-02-11T08:55:59.921Z,44.57
2023-02-11T08:58:29.237Z,43.47
2023-02-11T09:01:31.882Z,44.54
2023-02-11T09:04:02.445Z,43.83
2023-02-11T09:06:31.970Z,43.55
2023-02-11T09:09:29.381Z,41.94
2023-02-11T09:11:57.790Z,41.57
2023-02-11T09:14:27.336Z,40.03
2023-02-11T09:16:55.620Z,38.43
2023-02-11T09:19:24.123Z,38.89
2023-02-11T09:21:52.425Z,36.80
2023-02-11T09:24:20.577Z,35.42
2023-02-11T09:26:49.969Z,35.76
2023-02-11T09:29:18.349Z,35.68
2023-02-11T09:31:46.662Z,35.71
2023-02-11T09:34:16.200Z,34.90
2023-02-11T09:36:44.692Z,35.45
2023-02-11T09:39:17.201Z,32.95
2023-02-11T09:42:27.460Z,32.56
2023-02-11T09:44:55.667Z,33.77
2023-02-11T09:47:58.221Z,34.58
2023-02-11T09:50:32.841Z,34.94
2023-02-11T09:53:03.339Z,35.72
2023-02-11T09:55:40.679Z,36.70
2023-02-11T09:58:36.459Z,36.94
2023-02-11T10:01:40.159Z,36.36
2023-02-11T10:04:46.086Z,36.41
2023-02-11T10:07:37.425Z,36.39
2023-02-11T10:10:29.393Z,35.09
2023-02-11T10:13:34.957Z,35.59
2023-02-11T10:16:07.418Z,35.92
2023-02-11T10:19:05.449Z,35.98
2023-02-11T10:22:31.505Z,36.37
2023-02-11T10:25:00.558Z,37.53
2023-02-11T10:27:52.134Z,37.97
2023-02-11T10:31:08.456Z,38.63
2023-02-11T10:33:53.262Z,38.40
2023-02-11T10:36:24.373Z,38.91
2023-02-11T10:38:52.647Z,39.07
2023-02-11T10:41:27.042Z,39.09
2023-02-11T10:43:56.150Z,38.92
2023-02-11T10:46:29.842Z,39.53
2023-02-11T10:49:03.897Z,39.46
2023-02-11T10:51:37.932Z,39.87
2023-02-11T10:54:13.917Z,39.06
2023-02-11T10:56:52.431Z,38.42
2023-02-11T10:59:31.224Z,37.31
2023-02-11T11:02:07.085Z,36.85
2023-02-11T11:04:42.832Z,35.39
2023-02-11T11:07:12.973Z,35.84
2023-02-11T11:09:49.185Z,34.91
2023-02-11T11:12:46.588Z,35.04
2023-02-11T11:15:18.490Z,34.17
2023-02-11T11:18:33.782Z,34.24
2023-02-11T11:21:07.541Z,34.39
2023-02-11T11:23:37.320Z,34.90
2023-02-11T11:26:07.249Z,35.59
2023-02-11T11:28:50.592Z,35.84
2023-02-11T11:31:27.582Z,34.31
2023-02-11T11:34:21.199Z,33.41
2023-02-11T11:36:50.732Z,34.16
2023-02-11T11:39:24.508Z,32.71
2023-02-11T11:42:02.279Z,33.11
2023-02-11T11:44:39.802Z,32.47
2023-02-11T11:47:10.795Z,31.44
2023-02-11T11:49:55.211Z,32.57
2023-02-11T11:52:23.174Z,32.93
2023-02-11T11:55:21.865Z,32.76
2023-02-11T11:57:51.009Z,31.62
2023-02-11T12:00:31.780Z,32.09
2023-02-11T12:03:26.657Z,33.25
2023-02-11T12:06:20.830Z,32.57
2023-02-11T12:09:08.075Z,32.55
2023-02-11T12:11:54.800Z,33.44
2023-02-11T12:14:42.912Z,33.81
2023-02-11T12:17:34.416Z,34.13
2023-02-11T12:21:03.912Z,35.70
2023-02-11T12:24:01.086Z,35.66
2023-02-11T12:26:43.050Z,36.90
2023-02-11T12:29:39.566Z,37.67
2023-02-11T12:32:20.628Z,37.70
2023-02-11T12:34:49.373Z,38.44
2023-02-11T12:37:50.211Z,38.74
2023-02-11T12:40:31.584Z,38.67
2023-02-11T12:43:34.869Z,39.62
2023-02-11T12:46:31.309Z,39.64
2023-02-11T12:49:18.044Z,39.74
2023-02-11T12:51:58.323Z,39.55
2023-02-11T12:54:32.075Z,39.99
2023-02-11T12:57:03.203Z,40.16
2023-02-11T12:59:57.687Z,39.80
2023-02-11T13:02:56.748Z,39.04
2023-02-11T13:05:29.967Z,38.48
2023-02-11T13:08:16.314Z,37.93
2023-02-11T13:10:49.164Z,37.08
2023-02-11T13:13:22.488Z,37.07
2023-02-11T13:16:08.999Z,36.97
2023-02-11T13:19:32.885Z,36.99
2023-02-11T13:22:10.252Z,36.01
2023-02-11T13:24:50.961Z,36.21
2023-02-11T13:27:51.033Z,36.16
2023-02-11T13:30:24.953Z,36.47
2023-02-11T13:32:55.806Z,35.93
2023-02-11T13:35:29.837Z,35.86
2023-02-11T13:38:02.792Z,35.84
2023-02-11T13:40:39.569Z,36.17
2023-02-11T13:43:30.069Z,36.24
2023-02-11T13:46:04.074Z,36.60
2023-02-11T13:48:53.193Z,36.87
2023-02-11T13:51:43.265Z,38.28
2023-02-11T13:54:25.371Z,37.69
2023-02-11T13:57:34.061Z,38.20
2023-02-11T14:00:34.181Z,38.99
2023-02-11T14:03:30.271Z,38.92
2023-02-11T14:06:29.122Z,39.25
2023-02-11T14:09:11.121Z,39.27
2023-02-11T14:11:44.956Z,39.76
2023-02-11T14:14:33.665Z,40.08
2023-02-11T14:17:08.223Z,40.09
2023-02-11T14:19:36.692Z,40.51
2023-02-11T14:22:06.212Z,40.70
2023-02-11T14:24:35.083Z,41.29
2023-02-11T14:27:11.591Z,41.22
2023-02-11T14:30:02.600Z,41.04
2023-02-11T14:33:05.383Z,41.48
2023-02-11T14:35:43.261Z,41.86
2023-02-11T14:38:46.820Z,41.89
2023-02-11T14:41:33.974Z,42.01
2023-02-11T14:44:06.858Z,42.01
2023-02-11T14:46:35.369Z,42.67
2023-02-11T14:49:15.406Z,42.46
2023-02-11T14:51:44.542Z,42.75
2023-02-11T14:54:25.518Z,43.20
2023-02-11T14:57:22.308Z,43.53
2023-02-11T15:00:07.417Z,43.89
2023-02-11T15:02:38.490Z,44.18
2023-02-11T15:05:26.904Z,44.19
2023-02-11T15:07:59.605Z,44.70
2023-02-11T15:10:44.890Z,44.80
2023-02-11T15:13:20.390Z,45.14
2023-02-11T15:16:18.936Z,45.00
2023-02-11T15:19:04.773Z,45.30
2023-02-11T15:21:36.927Z,45.73
2023-02-11T15:24:24.136Z,46.10
2023-02-11T15:26:59.753Z,46.19
2023-02-11T15:29:40.126Z,46.27
2023-02-11T15:32:18.068Z,46.78
2023-02-11T15:35:09.363Z,47.04
2023-02-11T15:37:37.709Z,46.62
2023-02-11T15:40:13.187Z,46.62
2023-02-11T15:42:57.453Z,46.57
2023-02-11T15:45:41.675Z,46.80
2023-02-11T15:48:47.579Z,46.92
2023-02-11T15:52:19.960Z,46.85
2023-02-11T15:55:50.025Z,47.23
2023-02-11T15:58:41.285Z,47.17
2023-02-11T16:01:35.120Z,47.44
2023-02-11T16:04:05.916Z,47.33
2023-02-11T16:06:42.765Z,47.55
2023-02-11T16:09:13.993Z,47.62
2023-02-11T16:12:23.654Z,47.55
2023-02-11T16:14:51.879Z,47.95
2023-02-11T16:18:03.571Z,47.89
2023-02-11T16:20:32.185Z,48.10
2023-02-11T16:23:40.380Z,48.08
2023-02-11T16:26:29.368Z,48.78
2023-02-11T16:29:16.693Z,48.78
2023-02-11T16:31:47.474Z,48.90
2023-02-11T16:34:26.262Z,48.77
2023-02-11T16:37:11.303Z,49.13
2023-02-11T16:39:58.668Z,49.24
2023-02-11T16:42:26.892Z,49.60
2023-02-11T16:45:15.612Z,49.91
2023-02-11T16:48:05.030Z,50.25
2023-02-11T16:50:55.547Z,50.37
2023-02-11T16:53:48.852Z,50.65
2023-02-11T16:57:07.913Z,51.86
2023-02-11T16:59:36.661Z,52.47
2023-02-11T17:02:10.136Z,52.37
2023-02-11T17:04:39.520Z,53.02
2023-02-11T17:07:07.908Z,53.25
2023-02-11T17:09:54.239Z,53.59
2023-02-11T17:13:19.083Z,53.85
2023-02-11T17:15:55.858Z,54.12
2023-02-11T17:18:44.583Z,54.00
2023-02-11T17:21:51.356Z,54.06
2023-02-11T17:24:22.963Z,53.98
2023-02-11T17:27:12.595Z,54.17
2023-02-11T17:29:49.265Z,54.33
2023-02-11T17:32:21.879Z,54.23
2023-02-11T17:34:52.519Z,54.38
2023-02-11T17:37:21.464Z,54.29
2023-02-11T17:39:51.152Z,54.45
2023-02-11T17:42:19.934Z,54.68
2023-02-11T17:44:48.389Z,54.70
2023-02-11T17:47:25.994Z,54.88
2023-02-11T17:49:54.967Z,55.20
2023-02-11T17:52:44.855Z,55.49
2023-02-11T17:56:31.141Z,55.25
2023-02-11T18:00:19.353Z,56.38
2023-02-11T18:03:35.142Z,56.70
2023-02-11T18:06:24.505Z,56.90
2023-02-11T18:09:19.491Z,57.30
2023-02-11T18:13:05.315Z,57.21
2023-02-11T18:17:16.679Z,57.32
2023-02-11T18:20:14.442Z,57.50
2023-02-11T18:23:26.907Z,57.30
2023-02-11T18:25:56.082Z,56.76
2023-02-11T18:28:54.049Z,56.64
2023-02-11T18:32:06.392Z,56.59
2023-02-11T18:34:35.107Z,56.64
2023-02-11T18:37:03.625Z,57.06
2023-02-11T18:39:32.148Z,57.17
2023-02-11T18:42:00.775Z,57.30
2023-02-11T18:44:29.351Z,57.34
2023-02-11T18:46:58.284Z,56.98
2023-02-11T18:49:26.491Z,57.09
2023-02-11T18:51:55.428Z,56.78
2023-02-11T18:54:23.784Z,56.75
2023-02-11T18:56:52.177Z,56.70
2023-02-11T18:59:24.989Z,56.67
2023-02-11T19:01:55.173Z,56.50
2023-02-11T19:05:01.832Z,56.77
2023-02-11T19:07:52.554Z,56.86
2023-02-11T19:10:20.940Z,56.64
2023-02-11T19:12:54.874Z,56.97
2023-02-11T19:15:24.386Z,57.02
2023-02-11T19:17:52.834Z,56.95
2023-02-11T19:20:49.404Z,56.98
2023-02-11T19:24:12.090Z,57.33
2023-02-11T19:27:04.884Z,57.42
2023-02-11T19:29:35.353Z,57.73
2023-02-11T19:32:06.233Z,57.85
2023-02-11T19:34:42.227Z,57.99
2023-02-11T19:37:13.100Z,58.12
2023-02-11T19:39:42.654Z,57.76
2023-02-11T19:42:11.843Z,57.78
2023-02-11T19:44:42.913Z,57.56
2023-02-11T19:47:32.174Z,57.46
2023-02-11T19:50:20.643Z,57.55
2023-02-11T19:52:49.986Z,58.17
2023-02-11T19:55:18.777Z,58.59
2023-02-11T19:58:08.325Z,58.56
2023-02-11T20:00:42.310Z,58.25
2023-02-11T20:03:11.799Z,58.15
2023-02-11T20:05:47.297Z,58.02
2023-02-11T20:08:17.244Z,57.92
2023-02-11T20:10:45.513Z,57.38
2023-02-11T20:13:13.706Z,57.53
2023-02-11T20:15:50.928Z,57.38
2023-02-11T20:18:19.620Z,57.75
2023-02-11T20:20:54.585Z,57.78
2023-02-11T20:23:22.879Z,58.16
2023-02-11T20:25:52.502Z,58.04
2023-02-11T20:28:43.594Z,57.85
2023-02-11T20:31:12.981Z,57.61
2023-02-11T20:33:42.673Z,57.92
2023-02-11T20:36:21.453Z,57.73
2023-02-11T20:38:50.697Z,57.59
2023-02-11T20:41:40.010Z,57.79
2023-02-11T20:44:10.719Z,57.82
2023-02-11T20:46:47.034Z,58.13
2023-02-11T20:49:20.066Z,58.42
2023-02-11T20:51:50.029Z,58.40
2023-02-11T20:54:20.704Z,58.31
2023-02-11T20:56:51.363Z,58.39
2023-02-11T20:59:21.411Z,58.69
2023-02-11T21:01:56.514Z,59.16
2023-02-11T21:05:12.334Z,59.04
2023-02-11T21:07:43.106Z,59.43
2023-02-11T21:10:12.266Z,59.73
2023-02-11T21:13:03.162Z,59.99
2023-02-11T21:15:31.386Z,60.27
2023-02-11T21:17:59.551Z,60.67
2023-02-11T21:20:27.829Z,60.47
2023-02-11T21:23:12.565Z,60.30
2023-02-11T21:25:40.965Z,60.71
2023-02-11T21:28:31.699Z,60.64
2023-02-11T21:31:00.277Z,60.92
2023-02-11T21:33:29.462Z,61.42
2023-02-11T21:35:59.770Z,61.04
2023-02-11T21:38:28.916Z,60.92
2023-02-11T21:41:03.736Z,60.88
2023-02-11T21:43:32.738Z,61.16
2023-02-11T21:46:01.561Z,61.95
2023-02-11T21:48:50.494Z,61.91
2023-02-11T21:51:22.902Z,62.28
2023-02-11T21:54:15.245Z,62.22
2023-02-11T21:56:43.699Z,62.28
2023-02-11T21:59:14.284Z,62.01
2023-02-11T22:01:56.324Z,61.92
2023-02-11T22:04:26.751Z,61.79
2023-02-11T22:07:35.528Z,62.30
2023-02-11T22:10:05.375Z,62.37
2023-02-11T22:12:42.753Z,62.95
2023-02-11T22:15:27.967Z,62.68
2023-02-11T22:17:59.011Z,63.10
2023-02-11T22:20:27.584Z,63.45
2023-02-11T22:22:56.108Z,64.27
2023-02-11T22:25:24.243Z,64.36
2023-02-11T22:27:52.554Z,64.69
2023-02-11T22:30:21.058Z,64.77
2023-02-11T22:33:13.146Z,65.62
2023-02-11T22:35:44.108Z,65.51
2023-02-11T22:38:12.384Z,65.52
2023-02-11T22:40:44.034Z,66.18
2023-02-11T22:43:12.335Z,66.79
2023-02-11T22:45:40.989Z,67.13
2023-02-11T22:48:29.694Z,67.77
2023-02-11T22:51:04.271Z,68.31
2023-02-11T22:53:32.442Z,69.27
2023-02-11T22:56:29.567Z,70.50
2023-02-11T22:59:18.536Z,72.46
2023-02-11T23:01:47.081Z,75.93
2023-02-11T23:04:17.094Z,76.09
2023-02-11T23:06:47.761Z,78.20
2023-02-11T23:09:16.331Z,83.43
2023-02-11T23:11:44.783Z,84.57
2023-02-11T23:14:13.108Z,86.83
2023-02-11T23:16:41.468Z,89.58
2023-02-11T23:19:20.787Z,91.20
2023-02-11T23:21:51.564Z,94.32
2023-02-11T23:24:19.916Z,96.32
2023-02-11T23:26:48.572Z,97.37
2023-02-11T23:29:17.100Z,99.43
2023-02-11T23:31:46.732Z,100.00
2023-02-11T23:34:44.841Z,100.00
2023-02-11T23:37:13.253Z,100.00
2023-02-11T23:40:25.767Z,100.00
2023-02-11T23:43:14.765Z,100.00
2023-02-11T23:46:05.013Z,100.00
2023-02-11T23:48:36.777Z,100.00
2023-02-11T23:51:05.248Z,100.00
2023-02-11T23:53:33.611Z,100.00
2023-02-11T23:56:10.294Z,100.00
2023-02-11T23:58:39.009Z,100.00
